sensor_id;sensor_type;location;lat;lon;timestamp;pressure;altitude;pressure_sealevel;temperature;humidity
61528;BME280;47395;42.032;-8.634;2023-09-19T00:01:09;76517.91;;;-148.63;61.24
61528;BME280;47395;42.032;-8.634;2023-09-19T00:03:12;76521.91;;;-148.63;61.29
61528;BME280;47395;42.032;-8.634;2023-09-19T00:05:13;76553.94;;;-148.63;61.96
61528;BME280;47395;42.032;-8.634;2023-09-19T00:07:14;76539.94;;;-148.63;61.94
61528;BME280;47395;42.032;-8.634;2023-09-19T00:09:16;76535.94;;;-148.63;62.18
61528;BME280;47395;42.032;-8.634;2023-09-19T00:11:17;76525.91;;;-148.63;61.96
61528;BME280;47395;42.032;-8.634;2023-09-19T00:13:18;76525.91;;;-148.63;62.11
61528;BME280;47395;42.032;-8.634;2023-09-19T00:15:19;76515.91;;;-148.63;61.81
61528;BME280;47395;42.032;-8.634;2023-09-19T00:17:20;76517.91;;;-148.63;61.85
61528;BME280;47395;42.032;-8.634;2023-09-19T00:19:21;76515.91;;;-148.63;61.63
61528;BME280;47395;42.032;-8.634;2023-09-19T00:21:22;76529.91;;;-148.63;61.92
61528;BME280;47395;42.032;-8.634;2023-09-19T00:23:23;76529.91;;;-148.63;61.73
61528;BME280;47395;42.032;-8.634;2023-09-19T00:25:25;76521.91;;;-148.63;61.90
61528;BME280;47395;42.032;-8.634;2023-09-19T00:27:28;76527.91;;;-148.63;61.80
61528;BME280;47395;42.032;-8.634;2023-09-19T00:29:29;76519.91;;;-148.63;61.50
61528;BME280;47395;42.032;-8.634;2023-09-19T00:31:32;76519.91;;;-148.63;61.33
61528;BME280;47395;42.032;-8.634;2023-09-19T00:33:32;76521.91;;;-148.63;61.34
61528;BME280;47395;42.032;-8.634;2023-09-19T00:35:34;76535.94;;;-148.63;61.67
61528;BME280;47395;42.032;-8.634;2023-09-19T00:37:35;76537.94;;;-148.63;61.48
61528;BME280;47395;42.032;-8.634;2023-09-19T00:39:36;76541.94;;;-148.63;61.93
61528;BME280;47395;42.032;-8.634;2023-09-19T00:41:37;76541.94;;;-148.63;61.65
61528;BME280;47395;42.032;-8.634;2023-09-19T00:43:38;76545.94;;;-148.63;61.71
61528;BME280;47395;42.032;-8.634;2023-09-19T00:45:43;76537.94;;;-148.63;61.52
61528;BME280;47395;42.032;-8.634;2023-09-19T00:47:49;76545.94;;;-148.63;61.89
61528;BME280;47395;42.032;-8.634;2023-09-19T00:49:50;76591.97;;;-148.63;62.59
61528;BME280;47395;42.032;-8.634;2023-09-19T00:51:51;76593.97;;;-148.63;63.01
61528;BME280;47395;42.032;-8.634;2023-09-19T00:53:52;76583.94;;;-148.63;62.95
61528;BME280;47395;42.032;-8.634;2023-09-19T00:55:54;76611.97;;;-148.63;63.47
61528;BME280;47395;42.032;-8.634;2023-09-19T00:57:56;76601.97;;;-148.63;63.31
61528;BME280;47395;42.032;-8.634;2023-09-19T00:59:58;76585.97;;;-148.63;63.31
61528;BME280;47395;42.032;-8.634;2023-09-19T01:02:00;76563.94;;;-148.63;63.31
61528;BME280;47395;42.032;-8.634;2023-09-19T01:04:01;76569.94;;;-148.63;63.47
61528;BME280;47395;42.032;-8.634;2023-09-19T01:06:02;76527.91;;;-148.63;62.99
61528;BME280;47395;42.032;-8.634;2023-09-19T01:08:03;76505.91;;;-148.63;62.49
61528;BME280;47395;42.032;-8.634;2023-09-19T01:10:06;76485.91;;;-148.63;61.87
61528;BME280;47395;42.032;-8.634;2023-09-19T01:12:11;76481.91;;;-148.63;61.52
61528;BME280;47395;42.032;-8.634;2023-09-19T01:14:42;76471.91;;;-148.63;61.37
61528;BME280;47395;42.032;-8.634;2023-09-19T01:22:35;76495.91;;;-148.63;61.18
61528;BME280;47395;42.032;-8.634;2023-09-19T01:30:08;76533.94;;;-148.63;61.41
61528;BME280;47395;42.032;-8.634;2023-09-19T01:32:10;76551.94;;;-148.63;61.41
61528;BME280;47395;42.032;-8.634;2023-09-19T01:34:13;76565.94;;;-148.63;61.81
61528;BME280;47395;42.032;-8.634;2023-09-19T01:36:14;76567.94;;;-148.63;61.93
61528;BME280;47395;42.032;-8.634;2023-09-19T01:38:16;76569.94;;;-148.63;62.11
61528;BME280;47395;42.032;-8.634;2023-09-19T01:40:20;76561.94;;;-148.63;62.13
61528;BME280;47395;42.032;-8.634;2023-09-19T01:42:49;76563.94;;;-148.63;61.93
61528;BME280;47395;42.032;-8.634;2023-09-19T01:45:18;76573.94;;;-148.63;61.88
61528;BME280;47395;42.032;-8.634;2023-09-19T01:47:37;76575.94;;;-148.63;62.31
61528;BME280;47395;42.032;-8.634;2023-09-19T01:49:55;76561.94;;;-148.63;62.35
61528;BME280;47395;42.032;-8.634;2023-09-19T01:52:12;76551.94;;;-148.63;62.10
61528;BME280;47395;42.032;-8.634;2023-09-19T01:54:27;76553.94;;;-148.63;62.08
61528;BME280;47395;42.032;-8.634;2023-09-19T01:56:34;76543.94;;;-148.63;62.01
61528;BME280;47395;42.032;-8.634;2023-09-19T01:58:45;76541.94;;;-148.63;61.90
61528;BME280;47395;42.032;-8.634;2023-09-19T02:00:48;76545.94;;;-148.63;61.71
61528;BME280;47395;42.032;-8.634;2023-09-19T02:02:52;76543.94;;;-148.63;61.60
61528;BME280;47395;42.032;-8.634;2023-09-19T02:04:56;76559.94;;;-148.63;61.53
61528;BME280;47395;42.032;-8.634;2023-09-19T02:07:00;76553.94;;;-148.63;61.30
61528;BME280;47395;42.032;-8.634;2023-09-19T02:09:01;76561.94;;;-148.63;61.36
61528;BME280;47395;42.032;-8.634;2023-09-19T02:11:04;76561.94;;;-148.63;61.42
61528;BME280;47395;42.032;-8.634;2023-09-19T02:13:06;76541.94;;;-148.63;61.13
61528;BME280;47395;42.032;-8.634;2023-09-19T02:15:08;76541.94;;;-148.63;60.79
61528;BME280;47395;42.032;-8.634;2023-09-19T02:17:09;76539.94;;;-148.63;61.17
61528;BME280;47395;42.032;-8.634;2023-09-19T02:19:13;76549.94;;;-148.63;61.08
61528;BME280;47395;42.032;-8.634;2023-09-19T02:21:14;76561.94;;;-148.63;61.42
61528;BME280;47395;42.032;-8.634;2023-09-19T02:23:15;76559.94;;;-148.63;61.67
61528;BME280;47395;42.032;-8.634;2023-09-19T02:25:17;76571.94;;;-148.63;61.65
61528;BME280;47395;42.032;-8.634;2023-09-19T02:27:20;76565.94;;;-148.63;61.73
61528;BME280;47395;42.032;-8.634;2023-09-19T02:29:20;76559.94;;;-148.63;61.65
61528;BME280;47395;42.032;-8.634;2023-09-19T02:31:22;76557.94;;;-148.63;61.80
61528;BME280;47395;42.032;-8.634;2023-09-19T02:33:23;76543.94;;;-148.63;61.63
61528;BME280;47395;42.032;-8.634;2023-09-19T02:35:27;76537.94;;;-148.63;61.50
61528;BME280;47395;42.032;-8.634;2023-09-19T02:37:28;76521.91;;;-148.63;61.67
61528;BME280;47395;42.032;-8.634;2023-09-19T02:39:29;76517.91;;;-148.63;61.84
61528;BME280;47395;42.032;-8.634;2023-09-19T02:41:30;76505.91;;;-148.63;61.67
61528;BME280;47395;42.032;-8.634;2023-09-19T02:43:33;76513.91;;;-148.63;61.75
61528;BME280;47395;42.032;-8.634;2023-09-19T02:45:35;76503.91;;;-148.63;61.90
61528;BME280;47395;42.032;-8.634;2023-09-19T02:47:36;76485.91;;;-148.63;61.86
61528;BME280;47395;42.032;-8.634;2023-09-19T02:49:37;76473.91;;;-148.63;61.50
61528;BME280;47395;42.032;-8.634;2023-09-19T02:51:38;76477.91;;;-148.63;61.42
61528;BME280;47395;42.032;-8.634;2023-09-19T02:53:38;76469.88;;;-148.63;61.30
61528;BME280;47395;42.032;-8.634;2023-09-19T02:55:40;76465.88;;;-148.63;61.07
61528;BME280;47395;42.032;-8.634;2023-09-19T02:57:41;76465.88;;;-148.63;61.21
61528;BME280;47395;42.032;-8.634;2023-09-19T02:59:45;76459.88;;;-148.63;61.16
61528;BME280;47395;42.032;-8.634;2023-09-19T03:01:46;76449.88;;;-148.63;60.96
61528;BME280;47395;42.032;-8.634;2023-09-19T03:03:49;76445.88;;;-148.63;60.93
61528;BME280;47395;42.032;-8.634;2023-09-19T03:05:50;76437.88;;;-148.63;60.99
61528;BME280;47395;42.032;-8.634;2023-09-19T03:07:52;76437.88;;;-148.63;60.78
61528;BME280;47395;42.032;-8.634;2023-09-19T03:09:54;76439.88;;;-148.63;60.44
61528;BME280;47395;42.032;-8.634;2023-09-19T03:11:55;76433.88;;;-148.63;60.49
61528;BME280;47395;42.032;-8.634;2023-09-19T03:13:57;76473.91;;;-148.63;60.67
61528;BME280;47395;42.032;-8.634;2023-09-19T03:15:59;76463.88;;;-148.63;60.76
61528;BME280;47395;42.032;-8.634;2023-09-19T03:18:01;76467.88;;;-148.63;60.98
61528;BME280;47395;42.032;-8.634;2023-09-19T03:20:03;76465.88;;;-148.63;60.86
61528;BME280;47395;42.032;-8.634;2023-09-19T03:22:09;76459.88;;;-148.63;60.82
61528;BME280;47395;42.032;-8.634;2023-09-19T03:24:10;76453.88;;;-148.63;60.85
61528;BME280;47395;42.032;-8.634;2023-09-19T03:26:13;76449.88;;;-148.63;60.69
61528;BME280;47395;42.032;-8.634;2023-09-19T03:28:16;76447.88;;;-148.63;60.51
61528;BME280;47395;42.032;-8.634;2023-09-19T03:30:18;76439.88;;;-148.63;60.34
61528;BME280;47395;42.032;-8.634;2023-09-19T03:32:19;76441.88;;;-148.63;60.59
61528;BME280;47395;42.032;-8.634;2023-09-19T03:34:20;76435.88;;;-148.63;60.35
61528;BME280;47395;42.032;-8.634;2023-09-19T03:36:21;76429.88;;;-148.63;60.35
61528;BME280;47395;42.032;-8.634;2023-09-19T03:38:23;76439.88;;;-148.63;60.18
61528;BME280;47395;42.032;-8.634;2023-09-19T03:40:24;76433.88;;;-148.63;60.15
61528;BME280;47395;42.032;-8.634;2023-09-19T03:42:26;76429.88;;;-148.63;59.96
61528;BME280;47395;42.032;-8.634;2023-09-19T03:44:28;76427.88;;;-148.63;60.23
61528;BME280;47395;42.032;-8.634;2023-09-19T03:46:28;76473.91;;;-148.63;60.73
61528;BME280;47395;42.032;-8.634;2023-09-19T03:48:31;76463.88;;;-148.63;61.20
61528;BME280;47395;42.032;-8.634;2023-09-19T03:50:32;76479.91;;;-148.63;61.28
61528;BME280;47395;42.032;-8.634;2023-09-19T03:52:34;76469.88;;;-148.63;61.28
61528;BME280;47395;42.032;-8.634;2023-09-19T03:54:35;76485.91;;;-148.63;61.33
61528;BME280;47395;42.032;-8.634;2023-09-19T03:56:36;76473.91;;;-148.63;61.29
61528;BME280;47395;42.032;-8.634;2023-09-19T03:58:37;76461.88;;;-148.63;61.13
61528;BME280;47395;42.032;-8.634;2023-09-19T04:00:39;76463.88;;;-148.63;61.13
61528;BME280;47395;42.032;-8.634;2023-09-19T04:07:51;76545.94;;;-148.63;62.62
61528;BME280;47395;42.032;-8.634;2023-09-19T04:09:52;76573.94;;;-148.63;62.51
61528;BME280;47395;42.032;-8.634;2023-09-19T04:11:56;76575.94;;;-148.63;62.33
61528;BME280;47395;42.032;-8.634;2023-09-19T04:13:57;76567.94;;;-148.63;62.03
61528;BME280;47395;42.032;-8.634;2023-09-19T04:15:58;76569.94;;;-148.63;61.42
61528;BME280;47395;42.032;-8.634;2023-09-19T04:17:59;76565.94;;;-148.63;61.51
61528;BME280;47395;42.032;-8.634;2023-09-19T04:20:00;76559.94;;;-148.63;61.54
61528;BME280;47395;42.032;-8.634;2023-09-19T04:22:01;76553.94;;;-148.63;61.30
61528;BME280;47395;42.032;-8.634;2023-09-19T04:24:02;76551.94;;;-148.63;61.62
61528;BME280;47395;42.032;-8.634;2023-09-19T04:26:03;76549.94;;;-148.63;61.68
61528;BME280;47395;42.032;-8.634;2023-09-19T04:28:07;76541.94;;;-148.63;61.59
61528;BME280;47395;42.032;-8.634;2023-09-19T04:30:08;76533.94;;;-148.63;61.67
61528;BME280;47395;42.032;-8.634;2023-09-19T04:32:12;76537.94;;;-148.63;61.50
61528;BME280;47395;42.032;-8.634;2023-09-19T04:34:13;76525.91;;;-148.63;61.49
61528;BME280;47395;42.032;-8.634;2023-09-19T04:36:16;76513.91;;;-148.63;61.47
61528;BME280;47395;42.032;-8.634;2023-09-19T04:38:20;76525.91;;;-148.63;61.08
61528;BME280;47395;42.032;-8.634;2023-09-19T04:40:22;76531.94;;;-148.63;61.45
61528;BME280;47395;42.032;-8.634;2023-09-19T04:42:25;76525.91;;;-148.63;61.34
61528;BME280;47395;42.032;-8.634;2023-09-19T04:44:26;76519.91;;;-148.63;61.55
61528;BME280;47395;42.032;-8.634;2023-09-19T04:46:26;76515.91;;;-148.63;61.46
61528;BME280;47395;42.032;-8.634;2023-09-19T04:48:27;76509.91;;;-148.63;61.32
61528;BME280;47395;42.032;-8.634;2023-09-19T04:50:30;76501.91;;;-148.63;61.01
61528;BME280;47395;42.032;-8.634;2023-09-19T04:52:31;76489.91;;;-148.63;60.84
61528;BME280;47395;42.032;-8.634;2023-09-19T04:54:32;76487.91;;;-148.63;60.43
61528;BME280;47395;42.032;-8.634;2023-09-19T04:56:36;76489.91;;;-148.63;60.55
61528;BME280;47395;42.032;-8.634;2023-09-19T04:58:41;76479.91;;;-148.63;60.47
61528;BME280;47395;42.032;-8.634;2023-09-19T05:00:42;76507.91;;;-148.63;60.51
61528;BME280;47395;42.032;-8.634;2023-09-19T05:02:43;76483.91;;;-148.63;60.68
61528;BME280;47395;42.032;-8.634;2023-09-19T05:04:45;76487.91;;;-148.63;60.63
61528;BME280;47395;42.032;-8.634;2023-09-19T05:06:46;76479.91;;;-148.63;60.22
61528;BME280;47395;42.032;-8.634;2023-09-19T05:08:47;76477.91;;;-148.63;60.13
61528;BME280;47395;42.032;-8.634;2023-09-19T05:10:52;76501.91;;;-148.63;60.17
61528;BME280;47395;42.032;-8.634;2023-09-19T05:12:53;76473.91;;;-148.63;60.41
61528;BME280;47395;42.032;-8.634;2023-09-19T05:14:55;76475.91;;;-148.63;60.17
61528;BME280;47395;42.032;-8.634;2023-09-19T05:16:56;76479.91;;;-148.63;60.17
61528;BME280;47395;42.032;-8.634;2023-09-19T05:18:57;76493.91;;;-148.63;60.10
61528;BME280;47395;42.032;-8.634;2023-09-19T05:21:02;76515.91;;;-148.63;60.73
61528;BME280;47395;42.032;-8.634;2023-09-19T05:23:06;76499.91;;;-148.63;60.40
61528;BME280;47395;42.032;-8.634;2023-09-19T05:25:12;76521.91;;;-148.63;60.55
61528;BME280;47395;42.032;-8.634;2023-09-19T05:27:17;76539.94;;;-148.63;61.09
61528;BME280;47395;42.032;-8.634;2023-09-19T05:29:18;76521.91;;;-148.63;60.82
61528;BME280;47395;42.032;-8.634;2023-09-19T05:31:19;76521.91;;;-148.63;60.96
61528;BME280;47395;42.032;-8.634;2023-09-19T05:33:21;76517.91;;;-148.63;60.88
61528;BME280;47395;42.032;-8.634;2023-09-19T05:35:23;76503.91;;;-148.63;60.64
61528;BME280;47395;42.032;-8.634;2023-09-19T05:37:25;76495.91;;;-148.63;60.66
61528;BME280;47395;42.032;-8.634;2023-09-19T05:39:28;76493.91;;;-148.63;60.52
61528;BME280;47395;42.032;-8.634;2023-09-19T05:41:28;76493.91;;;-148.63;60.51
61528;BME280;47395;42.032;-8.634;2023-09-19T05:43:29;76487.91;;;-148.63;60.31
61528;BME280;47395;42.032;-8.634;2023-09-19T05:45:32;76483.91;;;-148.63;60.26
61528;BME280;47395;42.032;-8.634;2023-09-19T05:47:34;76493.91;;;-148.63;60.42
61528;BME280;47395;42.032;-8.634;2023-09-19T05:49:35;76495.91;;;-148.63;60.27
61528;BME280;47395;42.032;-8.634;2023-09-19T05:51:39;76489.91;;;-148.63;60.05
61528;BME280;47395;42.032;-8.634;2023-09-19T05:53:41;76493.91;;;-148.63;60.13
61528;BME280;47395;42.032;-8.634;2023-09-19T05:55:44;76519.91;;;-148.63;60.12
61528;BME280;47395;42.032;-8.634;2023-09-19T05:57:50;76521.91;;;-148.63;60.37
61528;BME280;47395;42.032;-8.634;2023-09-19T05:59:52;76507.91;;;-148.63;60.27
61528;BME280;47395;42.032;-8.634;2023-09-19T06:01:52;76509.91;;;-148.63;60.18
61528;BME280;47395;42.032;-8.634;2023-09-19T06:03:53;76533.94;;;-148.63;60.33
61528;BME280;47395;42.032;-8.634;2023-09-19T06:05:54;76543.94;;;-148.63;60.75
61528;BME280;47395;42.032;-8.634;2023-09-19T06:07:58;76539.94;;;-148.63;60.78
61528;BME280;47395;42.032;-8.634;2023-09-19T06:10:08;76549.94;;;-148.63;60.61
61528;BME280;47395;42.032;-8.634;2023-09-19T06:12:10;76535.94;;;-148.63;60.83
61528;BME280;47395;42.032;-8.634;2023-09-19T06:14:14;76573.94;;;-148.63;61.10
61528;BME280;47395;42.032;-8.634;2023-09-19T06:16:18;76577.94;;;-148.63;61.48
61528;BME280;47395;42.032;-8.634;2023-09-19T06:18:20;76579.94;;;-148.63;61.61
61528;BME280;47395;42.032;-8.634;2023-09-19T06:20:21;76585.97;;;-148.63;61.75
61528;BME280;47395;42.032;-8.634;2023-09-19T06:22:23;76615.97;;;-148.63;62.14
61528;BME280;47395;42.032;-8.634;2023-09-19T06:24:24;76621.97;;;-148.63;62.52
61528;BME280;47395;42.032;-8.634;2023-09-19T06:26:27;76577.94;;;-148.63;61.88
61528;BME280;47395;42.032;-8.634;2023-09-19T06:28:29;76591.97;;;-148.63;61.90
61528;BME280;47395;42.032;-8.634;2023-09-19T06:30:30;76587.97;;;-148.63;61.79
61528;BME280;47395;42.032;-8.634;2023-09-19T06:32:33;76565.94;;;-148.63;61.53
61528;BME280;47395;42.032;-8.634;2023-09-19T06:34:34;76555.94;;;-148.63;60.98
61528;BME280;47395;42.032;-8.634;2023-09-19T06:36:36;76591.97;;;-148.63;61.32
61528;BME280;47395;42.032;-8.634;2023-09-19T06:38:38;76597.97;;;-148.63;61.43
61528;BME280;47395;42.032;-8.634;2023-09-19T06:40:41;76567.94;;;-148.63;61.18
61528;BME280;47395;42.032;-8.634;2023-09-19T06:42:47;76571.94;;;-148.63;61.22
61528;BME280;47395;42.032;-8.634;2023-09-19T06:44:50;76573.94;;;-148.63;61.37
61528;BME280;47395;42.032;-8.634;2023-09-19T06:46:51;76569.94;;;-148.63;61.47
61528;BME280;47395;42.032;-8.634;2023-09-19T06:48:52;76557.94;;;-148.63;61.03
61528;BME280;47395;42.032;-8.634;2023-09-19T06:50:58;76547.94;;;-148.63;61.31
61528;BME280;47395;42.032;-8.634;2023-09-19T06:53:05;76527.91;;;-148.63;60.95
61528;BME280;47395;42.032;-8.634;2023-09-19T06:55:06;76513.91;;;-148.63;60.84
61528;BME280;47395;42.032;-8.634;2023-09-19T06:57:10;76509.91;;;-148.63;60.35
61528;BME280;47395;42.032;-8.634;2023-09-19T06:59:12;76493.91;;;-148.63;60.01
61528;BME280;47395;42.032;-8.634;2023-09-19T07:01:15;76497.91;;;-148.63;59.64
61528;BME280;47395;42.032;-8.634;2023-09-19T07:03:16;76491.91;;;-148.63;59.65
61528;BME280;47395;42.032;-8.634;2023-09-19T07:05:19;76505.91;;;-148.63;59.50
61528;BME280;47395;42.032;-8.634;2023-09-19T07:07:21;76493.91;;;-148.63;59.25
61528;BME280;47395;42.032;-8.634;2023-09-19T07:09:24;76475.91;;;-148.63;59.07
61528;BME280;47395;42.032;-8.634;2023-09-19T07:11:29;76481.91;;;-148.63;59.15
61528;BME280;47395;42.032;-8.634;2023-09-19T07:13:31;76449.88;;;-148.63;58.72
61528;BME280;47395;42.032;-8.634;2023-09-19T07:15:33;76467.88;;;-148.63;58.97
61528;BME280;47395;42.032;-8.634;2023-09-19T07:17:39;76447.88;;;-148.63;58.74
61528;BME280;47395;42.032;-8.634;2023-09-19T07:19:40;76453.88;;;-148.63;58.87
61528;BME280;47395;42.032;-8.634;2023-09-19T07:21:42;76471.91;;;-148.63;58.56
61528;BME280;47395;42.032;-8.634;2023-09-19T07:23:43;76445.88;;;-148.63;58.87
61528;BME280;47395;42.032;-8.634;2023-09-19T07:25:44;76417.88;;;-148.63;58.19
61528;BME280;47395;42.032;-8.634;2023-09-19T07:27:46;76389.84;;;-148.63;57.82
61528;BME280;47395;42.032;-8.634;2023-09-19T07:29:47;76405.84;;;-148.63;57.77
61528;BME280;47395;42.032;-8.634;2023-09-19T07:31:48;76409.84;;;-148.63;57.66
61528;BME280;47395;42.032;-8.634;2023-09-19T07:33:52;76383.84;;;-148.63;57.10
61528;BME280;47395;42.032;-8.634;2023-09-19T07:35:54;76403.84;;;-148.63;57.38
61528;BME280;47395;42.032;-8.634;2023-09-19T07:37:55;76389.84;;;-148.63;57.27
61528;BME280;47395;42.032;-8.634;2023-09-19T07:39:57;76381.84;;;-148.63;56.53
61528;BME280;47395;42.032;-8.634;2023-09-19T07:41:58;76349.81;;;-148.63;56.34
61528;BME280;47395;42.032;-8.634;2023-09-19T07:43:59;76331.81;;;-148.63;56.07
61528;BME280;47395;42.032;-8.634;2023-09-19T07:46:08;76329.81;;;-148.63;55.96
61528;BME280;47395;42.032;-8.634;2023-09-19T07:48:12;76363.84;;;-148.63;56.40
61528;BME280;47395;42.032;-8.634;2023-09-19T07:50:17;76343.81;;;-148.63;56.44
61528;BME280;47395;42.032;-8.634;2023-09-19T07:52:19;76347.81;;;-148.63;56.60
61528;BME280;47395;42.032;-8.634;2023-09-19T07:54:22;76343.81;;;-148.63;56.37
61528;BME280;47395;42.032;-8.634;2023-09-19T07:56:23;76395.84;;;-148.63;56.74
61528;BME280;47395;42.032;-8.634;2023-09-19T07:58:26;76413.88;;;-148.63;57.32
61528;BME280;47395;42.032;-8.634;2023-09-19T08:00:27;76397.84;;;-148.63;57.49
61528;BME280;47395;42.032;-8.634;2023-09-19T08:02:29;76383.84;;;-148.63;57.35
61528;BME280;47395;42.032;-8.634;2023-09-19T08:04:31;76349.81;;;-148.63;56.58
61528;BME280;47395;42.032;-8.634;2023-09-19T08:06:34;76327.81;;;-148.63;56.45
61528;BME280;47395;42.032;-8.634;2023-09-19T08:08:35;76309.81;;;-148.63;56.47
61528;BME280;47395;42.032;-8.634;2023-09-19T08:10:37;76365.84;;;-148.63;56.82
61528;BME280;47395;42.032;-8.634;2023-09-19T08:12:42;76325.81;;;-148.63;56.31
61528;BME280;47395;42.032;-8.634;2023-09-19T08:14:47;76279.78;;;-148.63;55.69
61528;BME280;47395;42.032;-8.634;2023-09-19T08:16:48;76309.81;;;-148.63;56.22
61528;BME280;47395;42.032;-8.634;2023-09-19T08:18:49;76301.81;;;-148.63;55.59
61528;BME280;47395;42.032;-8.634;2023-09-19T08:20:53;76281.78;;;-148.63;55.31
61528;BME280;47395;42.032;-8.634;2023-09-19T08:22:54;76331.81;;;-148.63;55.84
61528;BME280;47395;42.032;-8.634;2023-09-19T08:24:55;76289.81;;;-148.63;55.64
61528;BME280;47395;42.032;-8.634;2023-09-19T08:26:57;76255.78;;;-148.63;54.96
61528;BME280;47395;42.032;-8.634;2023-09-19T08:28:58;76229.78;;;-148.63;55.10
61528;BME280;47395;42.032;-8.634;2023-09-19T08:43:03;76301.81;;;-148.63;56.17
61528;BME280;47395;42.032;-8.634;2023-09-19T08:45:05;76281.78;;;-148.63;55.79
61528;BME280;47395;42.032;-8.634;2023-09-19T08:47:15;76267.78;;;-148.63;55.59
61528;BME280;47395;42.032;-8.634;2023-09-19T08:49:36;76239.78;;;-148.63;55.34
61528;BME280;47395;42.032;-8.634;2023-09-19T08:51:43;76231.78;;;-148.63;54.59
61528;BME280;47395;42.032;-8.634;2023-09-19T08:54:03;76241.78;;;-148.63;55.02
61528;BME280;47395;42.032;-8.634;2023-09-19T08:56:10;76281.78;;;-148.63;55.56
61528;BME280;47395;42.032;-8.634;2023-09-19T08:58:14;76231.78;;;-148.63;54.80
61528;BME280;47395;42.032;-8.634;2023-09-19T09:00:18;76203.75;;;-148.63;55.04
61528;BME280;47395;42.032;-8.634;2023-09-19T09:02:23;76217.75;;;-148.63;54.27
61528;BME280;47395;42.032;-8.634;2023-09-19T09:04:26;76171.75;;;-148.63;54.30
61528;BME280;47395;42.032;-8.634;2023-09-19T09:06:29;76147.72;;;-148.63;53.23
61528;BME280;47395;42.032;-8.634;2023-09-19T09:08:31;76143.72;;;-148.63;53.62
61528;BME280;47395;42.032;-8.634;2023-09-19T09:10:34;76085.72;;;-148.63;52.92
61528;BME280;47395;42.032;-8.634;2023-09-19T09:12:35;76073.69;;;-148.63;51.54
61528;BME280;47395;42.032;-8.634;2023-09-19T09:14:38;76051.69;;;-148.63;51.56
61528;BME280;47395;42.032;-8.634;2023-09-19T09:16:38;76043.69;;;-148.63;51.91
61528;BME280;47395;42.032;-8.634;2023-09-19T09:18:41;76055.69;;;-148.63;51.52
61528;BME280;47395;42.032;-8.634;2023-09-19T09:20:46;76039.69;;;-148.63;51.59
61528;BME280;47395;42.032;-8.634;2023-09-19T09:26:17;76065.69;;;-148.63;51.97
61528;BME280;47395;42.032;-8.634;2023-09-19T09:28:47;76005.66;;;-148.63;51.33
61528;BME280;47395;42.032;-8.634;2023-09-19T09:30:49;75937.66;;;-148.63;50.66
61528;BME280;47395;42.032;-8.634;2023-09-19T09:33:08;75881.63;;;-148.63;49.86
61528;BME280;47395;42.032;-8.634;2023-09-19T09:35:29;75837.59;;;-148.63;49.25
61528;BME280;47395;42.032;-8.634;2023-09-19T09:37:30;75789.59;;;-148.63;48.38
61528;BME280;47395;42.032;-8.634;2023-09-19T09:39:53;75779.59;;;-148.63;47.66
61528;BME280;47395;42.032;-8.634;2023-09-19T09:41:57;75819.59;;;-148.63;47.93
61528;BME280;47395;42.032;-8.634;2023-09-19T09:44:12;75849.59;;;-148.63;48.65
61528;BME280;47395;42.032;-8.634;2023-09-19T09:46:20;75943.66;;;-148.63;50.29
61528;BME280;47395;42.032;-8.634;2023-09-19T09:48:43;75919.63;;;-148.63;50.27
61528;BME280;47395;42.032;-8.634;2023-09-19T09:50:51;75861.63;;;-148.63;49.75
61528;BME280;47395;42.032;-8.634;2023-09-19T09:53:19;75921.63;;;-148.63;50.68
61528;BME280;47395;42.032;-8.634;2023-09-19T09:55:20;75873.63;;;-148.63;49.32
61528;BME280;47395;42.032;-8.634;2023-09-19T09:57:21;75891.63;;;-148.63;49.39
61528;BME280;47395;42.032;-8.634;2023-09-19T10:02:26;75953.66;;;-148.63;50.92
61528;BME280;47395;42.032;-8.634;2023-09-19T10:04:29;75973.66;;;-148.63;51.13
61528;BME280;47395;42.032;-8.634;2023-09-19T10:06:42;75971.66;;;-148.63;51.78
61528;BME280;47395;42.032;-8.634;2023-09-19T10:09:05;75937.66;;;-148.63;51.22
61528;BME280;47395;42.032;-8.634;2023-09-19T10:11:15;75905.63;;;-148.63;50.33
61528;BME280;47395;42.032;-8.634;2023-09-19T10:13:17;75843.59;;;-148.63;49.95
61528;BME280;47395;42.032;-8.634;2023-09-19T10:15:26;75881.63;;;-148.63;50.19
61528;BME280;47395;42.032;-8.634;2023-09-19T10:17:30;75735.56;;;-148.63;48.14
61528;BME280;47395;42.032;-8.634;2023-09-19T10:19:37;75677.56;;;-148.63;47.35
61528;BME280;47395;42.032;-8.634;2023-09-19T10:21:50;75479.50;;;-148.63;44.80
61528;BME280;47395;42.032;-8.634;2023-09-19T10:23:52;75305.44;;;-148.63;42.67
61528;BME280;47395;42.032;-8.634;2023-09-19T10:25:57;75219.44;;;-148.63;40.87
61528;BME280;47395;42.032;-8.634;2023-09-19T10:28:03;75059.38;;;-148.63;39.07
61528;BME280;47395;42.032;-8.634;2023-09-19T10:30:22;74745.34;;;-148.63;35.40
61528;BME280;47395;42.032;-8.634;2023-09-19T10:32:28;74581.34;;;-148.63;33.29
61528;BME280;47395;42.032;-8.634;2023-09-19T10:34:35;74537.34;;;-148.63;32.76
61528;BME280;47395;42.032;-8.634;2023-09-19T10:36:38;74381.31;;;-148.63;30.78
61528;BME280;47395;42.032;-8.634;2023-09-19T10:38:43;74279.31;;;-148.63;30.58
61528;BME280;47395;42.032;-8.634;2023-09-19T10:40:53;74259.31;;;-148.63;30.45
61528;BME280;47395;42.032;-8.634;2023-09-19T10:42:54;74133.34;;;-148.63;29.26
61528;BME280;47395;42.032;-8.634;2023-09-19T10:45:00;74145.34;;;-148.63;28.91
61528;BME280;47395;42.032;-8.634;2023-09-19T10:47:04;74081.34;;;-148.63;28.79
61528;BME280;47395;42.032;-8.634;2023-09-19T10:49:10;74179.34;;;-148.63;28.42
61528;BME280;47395;42.032;-8.634;2023-09-19T10:51:15;74265.31;;;-148.63;29.86
61528;BME280;47395;42.032;-8.634;2023-09-19T10:53:18;74187.34;;;-148.63;29.54
61528;BME280;47395;42.032;-8.634;2023-09-19T10:55:21;74061.34;;;-148.63;28.08
61528;BME280;47395;42.032;-8.634;2023-09-19T10:57:25;73835.34;;;-148.63;26.43
61528;BME280;47395;42.032;-8.634;2023-09-19T10:59:29;73861.34;;;-148.63;26.82
61528;BME280;47395;42.032;-8.634;2023-09-19T11:01:51;73815.38;;;-148.63;26.61
61528;BME280;47395;42.032;-8.634;2023-09-19T11:04:22;74003.34;;;-148.63;28.37
61528;BME280;47395;42.032;-8.634;2023-09-19T11:06:26;73983.34;;;-148.63;28.37